Green Valley, AZ (85614)

10:06 AM MST on August 27, 2016 (GMT -0700)
las campanas village | | Change Station

Elev 2976 ft 31.88 °N, 111.00 °W | Updated 16 seconds ago

Clear
Clear
86.0 °F
Feels Like 83 °F
N
3.6
Wind Variable Wind from South
Gusts 4.9 mph

Today
High -- | Low -- °F
--% Chance of Precip.
Yesterday
High -- | Low -- °F
Precip. -- in
Pressure 29.92 in
Visibility 10.0 miles
Clouds Clear
Heat Index 83 °F
Dew Point 40 °F
Humidity 20%
Rainfall 0.00 in
Snow Depth Not available.
5:56 AM 6:53 PM
Waning Crescent, 23% visible
METAR KTUS 271653Z 13006KT 10SM CLR 30/06 A3007 RMK AO2 SLP132 T03000061
Pressure 29.92 in
Visibility 10.0 miles
Clouds Clear
Heat Index 83 °F
Dew Point 40 °F
Humidity 20%
Rainfall 0.00 in
Snow Depth Not available.
5:56 AM 6:53 PM
Waning Crescent, 23% visible
METAR KTUS 271653Z 13006KT 10SM CLR 30/06 A3007 RMK AO2 SLP132 T03000061

10-Day Weather Forecast

Almanac

Astronomy

Aug. 27, 2016 Rise Set
Actual Time
Civil Twilight
Nautical Twilight
Astronomical Twilight
Moon
Length of Visible Light
Length of Day
Tomorrow will be .
, % of the Moon is Illuminated

Today's Extremes

State Highs State Lows

Community

WunderPhotos

Upload Photos

1,935,383 photos uploaded!

WunderBlog® & News

Nearby

Air Quality

  Air Quality AQ Index Pollutant
Not available.

Snow Depth

Station Depth Elevation

Earthquake Activity

City Distance Mag. Time & Date
Minimum magnitude displayed is 2.5.

Coastal Water Temperatures

Place Temperature

Stations

Nearby Weather Stations

Station Location Temp. Windchill Dew Point Humidity Wind Precip. Elev Updated Type
                   

Watches & Warnings

There are currently no watches in effect.